createdAt,value
2018-09-03T00:00:20.740Z,19.63
2018-09-03T00:02:56.672Z,19.64
2018-09-03T00:06:03.288Z,19.62
2018-09-03T00:08:39.153Z,19.59
2018-09-03T00:11:15.152Z,19.61
2018-09-03T00:13:50.980Z,19.59
2018-09-03T00:16:26.974Z,19.57
2018-09-03T00:19:03.054Z,19.59
2018-09-03T00:21:39.063Z,19.59
2018-09-03T00:24:14.947Z,19.58
2018-09-03T00:26:50.880Z,19.57
2018-09-03T00:29:26.919Z,19.54
2018-09-03T00:32:07.905Z,19.50
2018-09-03T00:34:48.826Z,19.48
2018-09-03T00:37:29.965Z,19.46
2018-09-03T00:40:11.170Z,19.44
2018-09-03T00:43:54.829Z,19.43
2018-09-03T00:46:35.669Z,19.43
2018-09-03T00:49:11.569Z,19.42
2018-09-03T00:51:47.408Z,19.40
2018-09-03T00:54:23.442Z,19.39
2018-09-03T00:56:59.224Z,19.39
2018-09-03T00:59:35.387Z,19.37
2018-09-03T01:02:11.338Z,19.34
2018-09-03T01:04:47.300Z,19.31
2018-09-03T01:07:23.181Z,19.27
2018-09-03T01:09:59.102Z,19.25
2018-09-03T01:12:35.053Z,19.24
2018-09-03T01:15:10.939Z,19.24
2018-09-03T01:17:46.873Z,19.20
2018-09-03T01:20:22.873Z,19.13
2018-09-03T01:22:58.726Z,19.11
2018-09-03T01:25:34.612Z,19.07
2018-09-03T01:28:10.396Z,19.06
2018-09-03T01:30:46.211Z,19.06
2018-09-03T01:33:21.980Z,19.04
2018-09-03T01:35:57.904Z,19.07
2018-09-03T01:38:33.877Z,19.08
2018-09-03T01:41:09.856Z,19.08
2018-09-03T01:43:46.006Z,19.09
2018-09-03T01:46:21.885Z,19.08
2018-09-03T01:48:57.923Z,19.08
2018-09-03T01:51:33.970Z,19.08
2018-09-03T01:54:09.720Z,19.08
2018-09-03T01:56:45.628Z,19.07
2018-09-03T01:59:21.549Z,19.03
2018-09-03T02:01:57.419Z,19.00
2018-09-03T02:04:33.364Z,19.00
2018-09-03T02:07:09.264Z,18.93
2018-09-03T02:09:45.188Z,18.84
2018-09-03T02:12:21.096Z,18.77
2018-09-03T02:14:57.080Z,18.76
2018-09-03T02:17:33.169Z,18.69
2018-09-03T02:20:09.077Z,18.64
2018-09-03T02:22:44.849Z,18.58
2018-09-03T02:25:20.762Z,18.52
2018-09-03T02:27:56.629Z,18.49
2018-09-03T02:30:32.594Z,18.47
2018-09-03T02:33:08.528Z,18.48
2018-09-03T02:35:44.400Z,18.45
2018-09-03T02:38:20.457Z,18.45
2018-09-03T02:40:56.359Z,18.48
2018-09-03T02:43:32.425Z,18.51
2018-09-03T02:46:08.420Z,18.52
2018-09-03T02:48:44.252Z,18.51
2018-09-03T02:51:20.237Z,18.49
2018-09-03T02:53:56.161Z,18.49
2018-09-03T02:56:32.116Z,18.50
2018-09-03T02:59:08.149Z,18.44
2018-09-03T03:01:43.948Z,18.37
2018-09-03T03:04:19.871Z,18.36
2018-09-03T03:06:55.775Z,18.39
2018-09-03T03:09:31.704Z,18.38
2018-09-03T03:12:07.653Z,18.38
2018-09-03T03:14:43.727Z,18.36
2018-09-03T03:17:20.048Z,18.35
2018-09-03T03:19:56.089Z,18.34
2018-09-03T03:22:32.040Z,18.33
2018-09-03T03:25:08.191Z,18.35
2018-09-03T03:27:44.082Z,18.37
2018-09-03T03:30:20.080Z,18.40
2018-09-03T03:32:55.965Z,18.42
2018-09-03T03:35:31.915Z,18.43
2018-09-03T03:38:07.917Z,18.46
2018-09-03T03:40:43.878Z,18.46
2018-09-03T03:43:19.872Z,18.47
2018-09-03T03:45:55.902Z,18.50
2018-09-03T03:48:31.971Z,18.49
2018-09-03T03:51:07.823Z,18.48
2018-09-03T03:53:43.772Z,18.49
2018-09-03T03:56:19.657Z,18.51
2018-09-03T03:58:55.743Z,18.54
2018-09-03T04:01:31.648Z,18.55
2018-09-03T04:04:07.725Z,18.53
2018-09-03T04:06:43.563Z,18.51
2018-09-03T04:09:19.455Z,18.54
2018-09-03T04:11:55.224Z,18.53
2018-09-03T04:14:31.192Z,18.54
2018-09-03T04:17:07.227Z,18.53
2018-09-03T04:19:43.091Z,18.53
2018-09-03T04:22:19.129Z,18.53
2018-09-03T04:24:55.339Z,18.54
2018-09-03T04:27:31.200Z,18.56
2018-09-03T04:30:07.231Z,18.58
2018-09-03T04:32:43.263Z,18.58
2018-09-03T04:35:19.123Z,18.56
2018-09-03T04:37:55.124Z,18.52
2018-09-03T04:40:31.047Z,18.48
2018-09-03T04:43:06.885Z,18.43
2018-09-03T04:45:42.749Z,18.40
2018-09-03T04:48:18.692Z,18.39
2018-09-03T04:50:54.573Z,18.34
2018-09-03T04:53:30.374Z,18.31
2018-09-03T04:56:06.337Z,18.29
2018-09-03T04:58:42.197Z,18.28
2018-09-03T05:01:18.879Z,18.26
2018-09-03T05:03:54.796Z,18.23
2018-09-03T05:06:30.788Z,18.23
2018-09-03T05:09:07.498Z,18.28
2018-09-03T05:11:43.492Z,18.26
2018-09-03T05:14:19.596Z,18.24
2018-09-03T05:16:55.756Z,18.25
2018-09-03T05:19:31.846Z,18.25
2018-09-03T05:22:07.767Z,18.23
2018-09-03T05:24:43.578Z,18.24
2018-09-03T05:27:19.634Z,18.24
2018-09-03T05:29:55.742Z,18.24
2018-09-03T05:32:31.760Z,18.26
2018-09-03T05:35:07.920Z,18.27
2018-09-03T05:37:43.715Z,18.29
2018-09-03T05:40:19.739Z,18.29
2018-09-03T05:42:55.856Z,18.29
2018-09-03T05:45:31.749Z,18.30
2018-09-03T05:48:07.648Z,18.31
2018-09-03T05:50:43.790Z,18.31
2018-09-03T05:53:19.592Z,18.30
2018-09-03T05:55:55.884Z,18.29
2018-09-03T05:58:31.905Z,18.27
2018-09-03T06:01:07.906Z,18.29
2018-09-03T06:03:43.922Z,18.28
2018-09-03T06:06:19.930Z,18.32
2018-09-03T06:08:55.781Z,18.34
2018-09-03T06:11:31.759Z,18.39
2018-09-03T06:14:07.961Z,18.45
2018-09-03T06:16:43.911Z,18.46
2018-09-03T06:19:19.879Z,18.47
2018-09-03T06:21:55.828Z,18.48
2018-09-03T06:24:31.902Z,18.49
2018-09-03T06:27:07.783Z,18.51
2018-09-03T06:29:43.592Z,18.55
2018-09-03T06:32:19.542Z,18.58
2018-09-03T06:34:55.516Z,18.61
2018-09-03T06:37:31.492Z,18.69
2018-09-03T06:40:07.559Z,18.72
2018-09-03T06:42:43.724Z,18.75
2018-09-03T06:45:20.015Z,18.80
2018-09-03T06:47:55.969Z,18.84
2018-09-03T06:50:31.896Z,18.88
2018-09-03T06:53:07.946Z,18.88
2018-09-03T06:55:43.790Z,18.89
2018-09-03T06:58:19.804Z,18.92
2018-09-03T07:00:55.749Z,18.99
2018-09-03T07:03:31.673Z,19.03
2018-09-03T07:06:07.686Z,19.09
2018-09-03T07:08:43.583Z,19.13
2018-09-03T07:11:19.523Z,19.18
2018-09-03T07:13:55.457Z,19.24
2018-09-03T07:16:31.318Z,19.28
2018-09-03T07:19:07.295Z,19.31
2018-09-03T07:21:43.227Z,19.31
2018-09-03T07:24:19.111Z,19.33
2018-09-03T07:26:55.104Z,19.29
2018-09-03T07:29:31.068Z,19.26
2018-09-03T07:32:06.781Z,19.28
2018-09-03T07:34:42.803Z,19.23
2018-09-03T07:37:18.678Z,19.19
2018-09-03T07:39:54.509Z,19.19
2018-09-03T07:42:30.972Z,19.22
2018-09-03T07:45:07.024Z,19.22
2018-09-03T07:47:42.954Z,19.24
2018-09-03T07:50:18.878Z,19.26
2018-09-03T07:52:54.772Z,19.22
2018-09-03T07:55:30.718Z,19.23
2018-09-03T07:58:07.660Z,19.27
2018-09-03T08:00:43.577Z,19.25
2018-09-03T08:03:19.393Z,19.27
2018-09-03T08:05:55.299Z,19.24
2018-09-03T08:08:31.268Z,19.27
2018-09-03T08:11:07.514Z,19.30
2018-09-03T08:13:43.724Z,19.29
2018-09-03T08:16:19.497Z,19.36
2018-09-03T08:18:55.597Z,19.40
2018-09-03T08:21:31.423Z,19.48
2018-09-03T08:24:07.539Z,19.48
2018-09-03T08:26:43.591Z,19.59
2018-09-03T08:29:19.589Z,19.47
2018-09-03T08:31:55.608Z,19.51
2018-09-03T08:34:31.543Z,19.58
2018-09-03T08:37:07.767Z,19.58
2018-09-03T08:39:43.756Z,19.64
2018-09-03T08:42:19.833Z,19.63
2018-09-03T08:44:55.669Z,19.65
2018-09-03T08:47:31.602Z,19.65
2018-09-03T08:50:07.699Z,19.64
2018-09-03T08:52:43.646Z,19.61
2018-09-03T08:55:19.657Z,19.62
2018-09-03T08:57:55.648Z,19.58
2018-09-03T09:00:31.540Z,19.54
2018-09-03T09:03:11.631Z,19.49
2018-09-03T09:05:47.617Z,19.38
2018-09-03T09:08:23.576Z,19.29
2018-09-03T09:10:59.533Z,19.21
2018-09-03T09:13:35.465Z,19.09
2018-09-03T09:16:11.463Z,19.13
2018-09-03T09:18:47.495Z,19.19
2018-09-03T09:21:23.320Z,19.26
2018-09-03T09:23:59.269Z,19.31
2018-09-03T09:26:35.385Z,19.43
2018-09-03T09:29:11.309Z,19.56
2018-09-03T09:31:47.340Z,19.64
2018-09-03T09:34:23.201Z,19.69
2018-09-03T09:36:59.489Z,19.68
2018-09-03T09:39:35.534Z,19.57
2018-09-03T09:42:11.503Z,19.53
2018-09-03T09:44:47.339Z,19.50
2018-09-03T09:47:23.286Z,19.65
2018-09-03T09:49:59.355Z,19.62
2018-09-03T09:52:35.203Z,19.61
2018-09-03T09:55:11.096Z,19.67
2018-09-03T09:57:46.947Z,19.81
2018-09-03T10:00:27.879Z,19.85
2018-09-03T10:03:03.810Z,19.91
2018-09-03T10:05:39.764Z,20.02
2018-09-03T10:08:15.768Z,20.11
2018-09-03T10:10:51.760Z,20.22
2018-09-03T10:13:27.725Z,20.43
2018-09-03T10:16:03.540Z,20.55
2018-09-03T10:18:39.527Z,20.70
2018-09-03T10:21:15.392Z,20.87
2018-09-03T10:23:51.351Z,20.92
2018-09-03T10:26:27.240Z,20.98
2018-09-03T10:29:03.259Z,20.97
2018-09-03T10:31:39.250Z,21.00
2018-09-03T10:34:15.026Z,21.17
2018-09-03T10:36:50.932Z,21.48
2018-09-03T10:39:26.950Z,21.83
2018-09-03T10:42:02.757Z,21.97
2018-09-03T10:44:38.732Z,22.22
2018-09-03T10:47:14.675Z,22.66
2018-09-03T10:49:50.659Z,23.00
2018-09-03T10:52:26.620Z,23.36
2018-09-03T10:55:02.496Z,23.91
2018-09-03T10:57:38.262Z,24.40
2018-09-03T11:00:14.893Z,24.88
2018-09-03T11:02:50.952Z,25.30
2018-09-03T11:05:26.979Z,25.54
2018-09-03T11:08:02.909Z,25.62
2018-09-03T11:10:38.809Z,25.45
2018-09-03T11:13:14.862Z,25.33
2018-09-03T11:15:50.901Z,25.17
2018-09-03T11:18:28.369Z,25.13
2018-09-03T11:21:04.335Z,25.05
2018-09-03T11:23:40.408Z,24.88
2018-09-03T11:26:16.433Z,24.62
2018-09-03T11:28:52.575Z,24.46
2018-09-03T11:31:28.401Z,24.37
2018-09-03T11:34:04.316Z,24.31
2018-09-03T11:36:40.089Z,24.29
2018-09-03T11:39:16.093Z,24.41
2018-09-03T11:41:51.948Z,24.67
2018-09-03T11:44:27.856Z,24.79
2018-09-03T11:47:03.992Z,24.83
2018-09-03T11:49:40.110Z,24.89
2018-09-03T11:52:15.966Z,24.83
2018-09-03T11:54:51.918Z,24.79
2018-09-03T11:57:27.973Z,24.76
2018-09-03T12:00:04.034Z,24.84
2018-09-03T12:02:40.093Z,24.97
2018-09-03T12:05:16.025Z,25.07
2018-09-03T12:07:52.170Z,25.15
2018-09-03T12:10:28.123Z,25.18
2018-09-03T12:13:04.053Z,25.08
2018-09-03T12:15:44.073Z,24.97
2018-09-03T12:18:20.095Z,24.94
2018-09-03T12:20:55.970Z,24.77
2018-09-03T12:23:32.004Z,24.77
2018-09-03T12:26:08.685Z,24.66
2018-09-03T12:28:44.647Z,24.65
2018-09-03T12:31:20.644Z,24.61
2018-09-03T12:33:56.585Z,24.65
2018-09-03T12:36:32.616Z,24.76
2018-09-03T12:39:11.004Z,24.87
2018-09-03T12:41:47.048Z,24.96
2018-09-03T12:44:23.034Z,24.97
2018-09-03T12:46:58.953Z,24.97
2018-09-03T12:49:34.982Z,25.01
2018-09-03T12:52:10.876Z,25.04
2018-09-03T12:54:46.776Z,24.99
2018-09-03T12:57:23.168Z,25.09
2018-09-03T13:00:05.147Z,25.31
2018-09-03T13:02:39.421Z,25.36
2018-09-03T13:05:11.136Z,25.30
2018-09-03T13:07:47.002Z,25.15
2018-09-03T13:10:23.124Z,25.06
2018-09-03T13:12:59.373Z,25.03
2018-09-03T13:15:35.304Z,25.05
2018-09-03T13:18:11.333Z,25.03
2018-09-03T13:20:47.374Z,24.92
2018-09-03T13:23:23.424Z,24.97
2018-09-03T13:25:59.468Z,24.92
2018-09-03T13:28:36.040Z,24.93
2018-09-03T13:31:12.112Z,25.02
2018-09-03T13:33:48.552Z,25.03
2018-09-03T13:36:24.504Z,24.97
2018-09-03T13:39:00.444Z,24.88
2018-09-03T13:41:36.399Z,24.95
2018-09-03T13:44:12.338Z,25.04
2018-09-03T13:46:48.296Z,25.20
2018-09-03T13:49:24.203Z,25.57
2018-09-03T13:52:00.340Z,25.85
2018-09-03T13:54:36.133Z,26.04
2018-09-03T13:57:12.085Z,26.04
2018-09-03T13:59:48.080Z,25.87
2018-09-03T14:02:23.895Z,25.59
2018-09-03T14:04:59.759Z,25.39
2018-09-03T14:07:35.731Z,25.19
2018-09-03T14:10:11.653Z,24.90
2018-09-03T14:12:47.621Z,24.74
2018-09-03T14:15:23.665Z,24.51
2018-09-03T14:17:59.635Z,24.31
2018-09-03T14:20:35.775Z,24.12
2018-09-03T14:23:11.703Z,23.94
2018-09-03T14:25:47.463Z,23.78
2018-09-03T14:28:23.536Z,23.60
2018-09-03T14:30:59.600Z,23.34
2018-09-03T14:33:35.315Z,23.12
2018-09-03T14:36:11.242Z,22.92
2018-09-03T14:38:47.080Z,22.79
2018-09-03T14:41:22.996Z,22.63
2018-09-03T14:43:59.003Z,22.72
2018-09-03T14:46:34.985Z,22.63
2018-09-03T14:49:10.964Z,22.58
2018-09-03T14:51:47.097Z,22.60
2018-09-03T14:54:23.221Z,22.68
2018-09-03T14:56:59.167Z,22.70
2018-09-03T14:59:35.176Z,22.79
2018-09-03T15:02:12.009Z,22.78
2018-09-03T15:04:48.036Z,22.84
2018-09-03T15:07:23.813Z,22.86
2018-09-03T15:09:59.797Z,22.96
2018-09-03T15:12:35.739Z,22.93
2018-09-03T15:15:11.520Z,22.90
2018-09-03T15:17:47.531Z,22.85
2018-09-03T15:20:23.486Z,22.87
2018-09-03T15:22:59.480Z,22.86
2018-09-03T15:25:35.419Z,22.92
2018-09-03T15:28:11.468Z,22.82
2018-09-03T15:30:47.452Z,22.76
2018-09-03T15:33:23.373Z,22.71
2018-09-03T15:35:59.363Z,22.60
2018-09-03T15:38:35.379Z,22.65
2018-09-03T15:41:11.273Z,22.49
2018-09-03T15:43:47.106Z,22.51
2018-09-03T15:46:22.975Z,22.47
2018-09-03T15:48:59.354Z,22.44
2018-09-03T15:51:35.400Z,22.40
2018-09-03T15:54:11.449Z,22.37
2018-09-03T15:56:47.339Z,22.30
2018-09-03T15:59:23.326Z,22.26
2018-09-03T16:01:59.249Z,22.26
2018-09-03T16:04:35.188Z,22.19
2018-09-03T16:07:11.224Z,22.17
2018-09-03T16:09:47.065Z,22.23
2018-09-03T16:12:23.125Z,22.21
2018-09-03T16:14:58.928Z,22.26
2018-09-03T16:17:34.869Z,22.16
2018-09-03T16:20:10.900Z,22.16
2018-09-03T16:22:47.072Z,22.14
2018-09-03T16:25:22.940Z,22.11
2018-09-03T16:27:58.835Z,22.11
2018-09-03T16:30:34.752Z,22.11
2018-09-03T16:33:10.703Z,22.15
2018-09-03T16:35:46.629Z,22.25
2018-09-03T16:38:22.520Z,22.17
2018-09-03T16:40:58.520Z,22.18
2018-09-03T16:43:34.328Z,22.19
2018-09-03T16:46:10.282Z,22.10
2018-09-03T16:48:46.463Z,22.13
2018-09-03T16:51:22.507Z,22.15
2018-09-03T16:53:58.357Z,22.16
2018-09-03T16:56:34.357Z,22.08
2018-09-03T16:59:10.371Z,21.99
2018-09-03T17:01:46.413Z,22.03
2018-09-03T17:04:22.347Z,22.00
2018-09-03T17:06:58.297Z,21.95
2018-09-03T17:09:34.338Z,21.80
2018-09-03T17:12:10.220Z,21.73
2018-09-03T17:14:46.209Z,21.70
2018-09-03T17:17:22.170Z,21.64
2018-09-03T17:19:58.040Z,21.66
2018-09-03T17:22:34.052Z,21.60
2018-09-03T17:25:09.981Z,21.56
2018-09-03T17:27:45.912Z,21.50
2018-09-03T17:30:21.981Z,21.53
2018-09-03T17:32:57.889Z,21.54
2018-09-03T17:35:33.892Z,21.54
2018-09-03T17:38:09.936Z,21.52
2018-09-03T17:40:45.912Z,21.50
2018-09-03T17:43:21.944Z,21.55
2018-09-03T17:45:57.988Z,21.51
2018-09-03T17:48:33.990Z,21.47
2018-09-03T17:51:09.972Z,21.47
2018-09-03T17:53:45.843Z,21.44
2018-09-03T17:56:21.918Z,21.50
2018-09-03T17:58:58.019Z,21.46
2018-09-03T18:01:34.135Z,21.45
2018-09-03T18:04:10.092Z,21.44
2018-09-03T18:06:46.108Z,21.40
2018-09-03T18:09:22.252Z,21.29
2018-09-03T18:11:58.275Z,21.25
2018-09-03T18:14:34.221Z,21.18
2018-09-03T18:17:10.268Z,21.15
2018-09-03T18:19:46.226Z,21.10
2018-09-03T18:22:22.294Z,21.08
2018-09-03T18:24:58.179Z,21.08
2018-09-03T18:27:34.261Z,21.07
2018-09-03T18:30:10.440Z,21.07
2018-09-03T18:32:46.600Z,21.04
2018-09-03T18:35:22.689Z,21.01
2018-09-03T18:37:58.581Z,20.98
2018-09-03T18:40:34.675Z,20.94
2018-09-03T18:43:10.846Z,20.91
2018-09-03T18:45:47.067Z,20.90
2018-09-03T18:48:23.055Z,20.94
2018-09-03T18:50:59.107Z,20.91
2018-09-03T18:53:35.314Z,20.90
2018-09-03T18:56:14.089Z,20.90
2018-09-03T18:58:50.042Z,20.89
2018-09-03T19:01:25.992Z,20.82
2018-09-03T19:04:01.926Z,20.75
2018-09-03T19:06:37.737Z,20.73
2018-09-03T19:09:13.886Z,20.77
2018-09-03T19:11:49.868Z,20.81
2018-09-03T19:14:25.912Z,20.83
2018-09-03T19:17:01.895Z,20.84
2018-09-03T19:19:37.903Z,20.84
2018-09-03T19:22:13.933Z,20.80
2018-09-03T19:24:49.907Z,20.78
2018-09-03T19:27:25.800Z,20.75
2018-09-03T19:30:02.020Z,20.72
2018-09-03T19:32:37.850Z,20.68
2018-09-03T19:35:13.856Z,20.65
2018-09-03T19:37:49.936Z,20.64
2018-09-03T19:40:25.952Z,20.61
2018-09-03T19:43:01.992Z,20.58
2018-09-03T19:45:37.819Z,20.57
2018-09-03T19:48:13.660Z,20.55
2018-09-03T19:50:49.665Z,20.53
2018-09-03T19:53:25.595Z,20.52
2018-09-03T19:56:01.682Z,20.50
2018-09-03T19:58:37.624Z,20.46
2018-09-03T20:01:16.846Z,20.43
2018-09-03T20:04:08.932Z,20.40
2018-09-03T20:06:45.164Z,20.37
2018-09-03T20:09:21.256Z,20.34
2018-09-03T20:11:57.316Z,20.32
2018-09-03T20:14:33.355Z,20.29
2018-09-03T20:17:09.361Z,20.28
2018-09-03T20:19:45.351Z,20.27
2018-09-03T20:22:21.344Z,20.26
2018-09-03T20:24:57.343Z,20.22
2018-09-03T20:27:33.207Z,20.21
2018-09-03T20:30:09.345Z,20.19
2018-09-03T20:32:45.314Z,20.17
2018-09-03T20:35:21.266Z,20.16
2018-09-03T20:37:57.144Z,20.15
2018-09-03T20:40:33.095Z,20.14
2018-09-03T20:43:39.995Z,20.14
2018-09-03T20:46:15.924Z,20.11
2018-09-03T20:48:52.135Z,20.09
2018-09-03T20:51:28.623Z,20.09
2018-09-03T20:54:04.761Z,20.09
2018-09-03T20:56:40.798Z,20.08
2018-09-03T20:59:16.951Z,20.08
2018-09-03T21:01:52.851Z,20.06
2018-09-03T21:04:28.875Z,20.04
2018-09-03T21:07:04.885Z,20.04
2018-09-03T21:09:41.032Z,20.03
2018-09-03T21:12:17.155Z,20.01
2018-09-03T21:14:52.944Z,19.99
2018-09-03T21:17:28.898Z,19.95
2018-09-03T21:20:05.568Z,19.94
2018-09-03T21:22:41.534Z,19.94
2018-09-03T21:25:17.550Z,19.96
2018-09-03T21:27:53.635Z,19.96
2018-09-03T21:30:29.701Z,19.96
2018-09-03T21:33:05.762Z,19.98
2018-09-03T21:35:41.632Z,20.00
2018-09-03T21:38:17.611Z,20.09
2018-09-03T21:40:53.408Z,19.95
2018-09-03T21:43:29.375Z,19.91
2018-09-03T21:46:05.380Z,19.88
2018-09-03T21:48:41.310Z,19.85
2018-09-03T21:51:17.243Z,19.84
2018-09-03T21:53:53.149Z,19.83
2018-09-03T21:56:28.936Z,19.82
2018-09-03T21:59:04.816Z,19.80
2018-09-03T22:01:40.511Z,19.74
2018-09-03T22:04:16.485Z,19.71
2018-09-03T22:06:52.383Z,19.65
2018-09-03T22:09:28.330Z,19.64
2018-09-03T22:12:04.268Z,19.59
2018-09-03T22:14:40.057Z,19.53
2018-09-03T22:17:15.964Z,19.46
2018-09-03T22:19:51.990Z,19.42
2018-09-03T22:22:27.929Z,19.38
2018-09-03T22:25:03.798Z,19.38
2018-09-03T22:27:39.686Z,19.39
2018-09-03T22:30:15.616Z,19.34
2018-09-03T22:32:51.464Z,19.29
2018-09-03T22:35:27.733Z,19.24
2018-09-03T22:38:03.804Z,19.19
2018-09-03T22:40:39.569Z,19.13
2018-09-03T22:43:15.520Z,19.11
2018-09-03T22:45:51.376Z,19.10
2018-09-03T22:48:27.373Z,19.04
2018-09-03T22:51:03.209Z,19.01
2018-09-03T22:53:39.130Z,18.95
2018-09-03T22:56:15.057Z,18.93
2018-09-03T22:58:50.953Z,18.87
2018-09-03T23:01:26.918Z,18.86
2018-09-03T23:04:02.916Z,18.87
2018-09-03T23:06:38.924Z,18.87
2018-09-03T23:09:14.684Z,18.83
2018-09-03T23:11:50.716Z,18.80
2018-09-03T23:14:26.579Z,18.76
2018-09-03T23:17:02.575Z,18.70
2018-09-03T23:19:38.551Z,18.65
2018-09-03T23:22:14.575Z,18.64
2018-09-03T23:24:50.504Z,18.62
2018-09-03T23:27:26.560Z,18.60
2018-09-03T23:30:02.577Z,18.57
2018-09-03T23:32:38.484Z,18.53
2018-09-03T23:35:14.316Z,18.49
2018-09-03T23:37:50.359Z,18.46
2018-09-03T23:40:26.287Z,18.43
2018-09-03T23:43:02.392Z,18.41
2018-09-03T23:45:38.223Z,18.39
2018-09-03T23:48:14.097Z,18.35
2018-09-03T23:50:50.076Z,18.33
2018-09-03T23:53:25.884Z,18.31
2018-09-03T23:56:01.791Z,18.28
2018-09-03T23:58:37.704Z,18.26
